AKDT,Max TemperatureF,Mean TemperatureF,Min TemperatureF,Max Dew PointF,MeanDew PointF,Min DewpointF,Max Humidity, Mean Humidity, Min Humidity, Max Sea Level PressureIn, Mean Sea Level PressureIn, Min Sea Level PressureIn, Max VisibilityMiles, Mean VisibilityMiles, Min VisibilityMiles, Max Wind SpeedMPH, Mean Wind SpeedMPH, Max Gust SpeedMPH,PrecipitationIn, CloudCover, Events, WindDirDegrees
2014-3-1,37,28,19,27,22,16,100,86,65,30.01,29.99,29.95,10,8,0,4,0,,0.00,1,Fog,310
2014-3-2,35,25,15,27,18,10,93,83,59,29.95,29.87,29.82,10,8,0,5,1,,0.00,1,Fog,330
2014-3-3,33,24,15,27,21,10,93,84,70,29.85,29.82,29.80,10,10,10,6,1,,0.00,2,,1
2014-3-4,39,33,27,25,22,19,89,66,49,29.85,29.80,29.75,10,10,10,8,3,,0.00,8,Snow,250
2014-3-5,35,30,26,29,27,20,93,84,66,29.74,29.70,29.66,10,5,1,9,5,,0.08,8,Snow,204
2014-3-6,25,20,16,18,16,11,93,84,75,29.73,29.71,29.68,10,9,5,7,4,,0.00,5,Snow,18
2014-3-7,27,20,12,14,10,4,88,71,51,29.72,29.57,29.28,10,8,0,9,2,,0.00,2,Fog,6
2014-3-8,28,14,1,9,3,-4,80,62,39,29.26,29.14,29.05,10,10,9,6,1,,0.00,0,,69
2014-3-9,26,14,1,7,3,-5,80,60,39,29.48,29.29,29.12,10,10,10,7,2,,0.00,0,,6
2014-3-10,39,28,16,27,14,3,80,65,54,29.49,29.26,28.93,10,10,9,13,5,18,0.00,8,Snow,340
2014-3-11,42,36,30,33,29,23,86,75,62,29.16,29.02,28.97,10,10,10,13,5,25,0.01,6,Rain-Snow,315
2014-3-12,36,34,30,32,26,22,93,77,64,29.58,29.40,29.18,10,10,10,12,5,18,0.01,7,Rain,283
2014-3-13,37,32,28,29,25,22,79,71,60,29.41,29.21,29.06,10,10,10,15,5,24,0.00,8,Snow,250
2014-3-14,45,32,19,32,26,17,92,80,62,29.50,29.13,28.94,10,7,0,23,5,33,0.46,7,Fog-Rain-Snow,247
2014-3-15,27,19,12,16,11,6,86,72,43,29.80,29.73,29.55,10,6,0,7,3,,0.16,5,Fog-Snow,85
2014-3-16,27,20,12,15,12,7,84,72,53,29.71,29.68,29.64,10,7,2,9,2,,0.00,8,Snow,351
2014-3-17,34,28,21,25,18,13,79,67,56,29.71,29.66,29.64,10,10,10,7,2,,0.00,7,,351
2014-3-18,37,31,25,24,21,17,85,69,44,29.99,29.85,29.72,10,9,2,8,1,,0.00,6,Snow,337
2014-3-19,37,24,12,17,11,9,84,56,33,30.23,30.13,30.01,10,10,6,8,1,,0.00,0,,25
2014-3-20,37,24,12,13,10,5,81,57,34,30.30,30.27,30.24,10,10,7,8,2,,0.00,0,,10
2014-3-21,37,29,21,13,10,8,60,46,33,30.35,30.34,30.31,10,10,10,9,6,,0.00,1,,9
2014-3-22,39,24,9,17,10,4,80,55,30,30.48,30.42,30.36,10,10,10,5,1,,0.00,0,,22
2014-3-23,39,24,10,20,10,4,82,56,27,30.50,30.44,30.34,10,10,9,5,1,,0.00,0,,9
2014-3-24,39,26,12,22,13,6,81,59,32,30.34,30.16,29.92,10,10,10,6,1,,0.00,0,,48
2014-3-25,42,28,14,18,12,7,80,56,25,29.91,29.82,29.71,10,10,8,6,1,,0.00,0,,272
2014-3-26,41,29,19,20,13,7,75,54,28,29.78,29.74,29.72,10,10,10,6,1,,0.00,1,,329
2014-3-27,37,26,16,21,14,9,81,62,37,29.83,29.82,29.79,10,10,9,5,1,,0.00,0,,298
2014-3-28,37,28,18,19,14,10,78,60,34,29.85,29.81,29.73,10,10,10,5,2,,0.00,0,,331
2014-3-29,37,26,15,21,13,8,78,59,32,29.87,29.78,29.74,10,10,10,7,1,,0.00,0,,319
2014-3-30,39,26,15,22,15,8,78,62,38,30.07,30.00,29.88,10,10,10,6,1,,0.00,0,,334
2014-3-31,39,27,17,21,16,9,74,60,38,30.12,30.07,30.00,10,10,10,6,1,,0.00,0,,308